Latest Weather Observations for Tocal

IDN60801

Issued at 5:05 pm EST Monday 1 September 2014 (issued every 30 minutes, with the page automatically refreshed every 10 minutes)

About weather observations | Map of weather stations | Latest weather observations for NSW | Other Formats
Station Details ID: 061250 Name: TOCAL AWS Lat: -32.63 Lon: 151.59 Height: 30.0 m
Data from the previous 72 hours. | See also: Recent months at Tocal
Date/Time
EST
Temp
°C
App
Temp
°C
Dew
Point
Rel
Hum
%
Delta-T
°C
Wind Press
QNH
hPa
Press
MSL
hPa
Rain
since 9 am
mm
Dir
 
Spd
km/h
Gust
km/h
Spd
kts
Gust
kts
01/05:01pm 20.5 18.7 8.0 44 6.5 N 7 9 4 5 - - 0.0
01/04:31pm 21.5 19.0 6.5 37 7.6 WNW 9 15 5 8 - - 0.0
01/04:01pm 21.8 18.5 6.2 36 7.9 NW 13 20 7 11 - - 0.0
01/03:31pm 22.2 17.5 5.1 33 8.5 NNW 19 28 10 15 - - 0.0
01/03:01pm 23.6 19.3 6.8 34 8.7 NW 19 30 10 16 - - 0.0
01/03:00pm 23.6 19.2 6.5 33 8.8 NW 19 - 10 - - - 0.0
01/02:31pm 23.1 18.9 7.6 37 8.1 NNW 19 26 10 14 - - 0.0
01/02:01pm 23.2 19.3 7.2 35 8.3 NW 17 28 9 15 - - 0.0
01/01:31pm 22.9 19.0 7.3 36 8.1 NW 17 30 9 16 - - 0.0
01/01:01pm 23.0 18.6 7.5 37 8.1 W 20 33 11 18 - - 0.0
01/12:31pm 22.6 18.3 7.1 36 8.0 NW 19 33 10 18 - - 0.0
01/12:01pm 22.2 18.5 7.9 39 7.5 NNW 17 28 9 15 - - 0.0
01/12:00pm 22.7 19.7 9.1 42 7.3 NNW 15 28 8 15 - - -
01/11:31am 20.7 19.6 10.8 53 5.4 NNW 7 9 4 5 - - 0.0
01/11:01am 20.1 19.0 11.8 59 4.6 NE 9 11 5 6 - - 0.0
01/10:31am 18.9 18.3 12.3 65 3.7 E 7 9 4 5 - - 0.0
01/10:01am 17.0 16.4 11.7 71 2.9 NE 6 9 3 5 - - 0.0
01/09:31am 15.4 14.4 11.1 75 2.3 ENE 7 9 4 5 - - 0.0
01/09:01am 13.8 12.5 11.2 84 1.4 NE 9 11 5 6 - - 0.0
01/09:00am 13.6 12.2 10.9 84 1.4 ENE 9 - 5 - - - 0.0
01/08:31am 12.2 10.9 9.9 86 1.2 NNE 7 9 4 5 - - 0.0
01/08:01am 10.8 9.0 9.6 92 0.6 NE 9 11 5 6 - - 0.0
01/07:31am 9.4 9.2 9.0 97 0.2 CALM 0 7 0 4 - - 0.0
01/07:01am 8.0 7.2 8.0 100 0.0 W 2 7 1 4 - - 0.0
01/06:31am 7.0 5.1 6.8 99 0.1 W 6 7 3 4 - - 0.0
01/06:01am 7.1 6.4 7.1 100 0.0 CALM 0 0 0 0 - - 0.0
01/06:00am 7.1 6.4 7.1 100 0.0 CALM 0 - 0 - - - -
01/05:31am 7.2 6.6 7.2 100 0.0 CALM 0 0 0 0 - - 0.0
01/05:01am 7.5 5.8 7.5 100 0.0 WSW 6 7 3 4 - - 0.0
01/04:31am 8.1 7.7 8.1 100 0.0 CALM 0 6 0 3 - - 0.0
01/04:01am 7.7 6.0 7.7 100 0.0 W 6 7 3 4 - - 0.0
01/03:31am 8.7 8.4 8.7 100 0.0 CALM 0 0 0 0 - - 0.0
01/03:01am 8.7 8.4 8.7 100 0.0 CALM 0 0 0 0 - - 0.0
01/03:00am 8.7 8.4 8.7 100 0.0 CALM 0 - 0 - - - 0.0
01/02:31am 8.7 8.4 8.7 100 0.0 W 0 0 0 0 - - 0.0
01/02:01am 8.9 8.6 8.7 99 0.1 CALM 0 0 0 0 - - 0.0
01/01:31am 9.1 8.9 9.1 100 0.0 CALM 0 0 0 0 - - 0.0
01/01:01am 9.7 9.6 9.5 99 0.1 CALM 0 0 0 0 - - 0.0
01/12:31am 9.6 9.1 9.4 99 0.1 W 2 6 1 3 - - 0.0
01/12:01am 10.0 10.1 10.0 100 0.0 CALM 0 0 0 0 - - 0.0
01/12:00am 10.0 10.0 9.8 99 0.1 CALM 0 - 0 - - - -
 
Date/Time
EST
Temp
°C
App
Temp
°C
Dew
Point
Rel
Hum
%
Delta-T
°C
Wind Press
QNH
hPa
Press
MSL
hPa
Rain
since 9 am
mm
Dir
 
Spd
km/h
Gust
km/h
Spd
kts
Gust
kts
31/11:31pm 10.0 10.0 9.8 99 0.1 CALM 0 0 0 0 - - 0.0
31/11:01pm 10.1 9.4 9.9 99 0.1 WNW 4 7 2 4 - - 0.0
31/10:31pm 10.2 9.9 10.0 99 0.1 WNW 2 7 1 4 - - 0.0
31/10:01pm 10.8 9.8 10.4 97 0.2 NW 6 7 3 4 - - 0.0
31/09:31pm 11.1 10.2 10.7 97 0.2 W 6 7 3 4 - - 0.0
31/09:01pm 11.5 10.7 11.1 97 0.2 NW 6 7 3 4 - - 0.0
31/09:00pm 11.6 10.8 11.0 96 0.3 NW 6 - 3 - - - 0.0
31/08:31pm 12.1 12.1 11.3 95 0.4 W 2 7 1 4 - - 0.0
31/08:01pm 12.6 12.0 11.7 94 0.5 WNW 6 7 3 4 - - 0.0
31/07:31pm 13.5 13.0 12.0 91 0.8 WNW 6 7 3 4 - - 0.0
31/07:01pm 15.3 15.9 11.8 79 1.9 CALM 0 6 0 3 - - 0.0
31/06:31pm 15.4 16.1 12.3 82 1.7 CALM 0 0 0 0 - - 0.0
31/06:01pm 16.1 16.1 12.3 78 2.1 SE 4 7 2 4 - - 0.0
31/06:00pm 16.2 15.7 12.2 77 2.2 ESE 6 - 3 - - - -
31/05:31pm 16.7 16.1 12.3 75 2.4 SSE 7 9 4 5 - - 0.0
31/05:01pm 17.7 16.7 12.3 70 3.0 S 9 13 5 7 - - 0.0
31/04:31pm 18.6 17.4 12.7 68 3.3 SE 11 15 6 8 - - 0.0
31/04:01pm 20.4 18.9 11.8 57 4.8 SSW 11 15 6 8 - - 0.0
31/03:31pm 21.6 22.0 11.1 51 5.8 CALM 0 6 0 3 - - 0.0
31/03:01pm 21.0 18.7 10.3 50 5.8 W 13 17 7 9 - - 0.0
31/03:00pm 21.2 19.2 10.1 49 6.0 W 11 - 6 - - - 0.0
31/02:31pm 21.1 20.2 10.5 50 5.8 WNW 6 11 3 6 - - 0.0
31/02:01pm 20.3 18.2 9.9 51 5.6 SSW 11 19 6 10 - - 0.0
31/01:31pm 20.3 18.5 9.6 50 5.7 W 9 15 5 8 - - 0.0
31/01:01pm 20.5 19.1 10.8 53 5.3 W 9 17 5 9 - - 0.0
31/12:31pm 19.3 19.0 11.5 60 4.3 NW 4 11 2 6 - - 0.0
31/12:01pm 18.5 16.6 10.5 59 4.3 SW 11 15 6 8 - - 0.0
31/12:00pm 18.5 16.6 10.5 59 4.3 SW 11 - 6 - - - -
31/11:31am 18.6 17.1 10.6 59 4.3 WNW 9 13 5 7 - - 0.0
31/11:01am 19.1 18.1 12.3 64 3.8 W 9 13 5 7 - - 0.0
31/10:31am 18.0 16.4 11.4 65 3.6 W 11 20 6 11 - - 0.0
31/10:01am 18.0 16.4 11.4 65 3.6 SW 11 19 6 10 - - 0.0
31/09:31am 17.0 15.2 10.9 67 3.3 W 11 17 6 9 - - 0.0
31/09:01am 16.6 15.2 10.8 68 3.1 W 9 13 5 7 - - 0.0
31/09:00am 16.7 14.9 10.7 67 3.2 W 11 - 6 - - - 0.0
31/08:31am 15.8 13.9 10.5 71 2.8 WSW 11 13 6 7 - - 0.0
31/08:01am 14.6 13.5 10.8 78 2.0 WNW 7 9 4 5 - - 0.0
31/07:31am 14.0 12.9 10.8 81 1.7 WNW 7 9 4 5 - - 0.0
31/07:01am 13.7 12.6 10.6 81 1.6 WNW 7 11 4 6 - - 0.0
31/06:31am 13.6 12.5 10.5 81 1.6 W 7 11 4 6 - - 0.0
31/06:01am 13.5 12.4 10.6 82 1.5 W 7 13 4 7 - - 0.0
31/06:00am 13.5 12.4 10.6 82 1.5 W 7 - 4 - - - -
31/05:31am 13.4 12.5 10.7 84 1.4 NNW 6 7 3 4 - - 0.0
31/05:01am 13.5 12.0 10.6 82 1.5 W 9 13 5 7 - - 0.0
31/04:31am 13.7 11.8 10.6 81 1.6 W 11 17 6 9 - - 0.0
31/04:01am 13.8 12.3 10.6 81 1.7 W 9 13 5 7 - - 0.0
31/03:31am 13.8 11.5 10.6 81 1.7 W 13 20 7 11 - - 0.0
31/03:01am 13.9 11.7 10.7 81 1.7 W 13 17 7 9 - - 0.0
31/03:00am 13.9 12.1 10.7 81 1.7 W 11 - 6 - - - 0.0
31/02:31am 13.9 11.7 10.9 82 1.6 WSW 13 22 7 12 - - 0.0
31/02:01am 14.0 12.2 10.8 81 1.7 W 11 15 6 8 - - 0.0
31/01:31am 14.1 12.7 10.9 81 1.7 W 9 15 5 8 - - 0.0
31/01:01am 14.2 12.8 11.0 81 1.7 WSW 9 15 5 8 - - 0.0
31/12:31am 14.3 12.5 10.9 80 1.8 W 11 15 6 8 - - 0.0
31/12:01am 14.5 12.8 11.1 80 1.8 WSW 11 17 6 9 - - 0.0
31/12:00am 14.5 12.8 11.1 80 1.8 W 11 - 6 - - - -
 
Date/Time
EST
Temp
°C
App
Temp
°C
Dew
Point
Rel
Hum
%
Delta-T
°C
Wind Press
QNH
hPa
Press
MSL
hPa
Rain
since 9 am
mm
Dir
 
Spd
km/h
Gust
km/h
Spd
kts
Gust
kts
30/11:31pm 14.5 13.2 11.3 81 1.7 WSW 9 15 5 8 - - 0.0
30/11:01pm 14.5 12.4 11.3 81 1.7 W 13 17 7 9 - - 0.0
30/10:31pm 14.7 12.6 11.3 80 1.8 W 13 17 7 9 - - 0.0
30/10:01pm 14.7 13.1 11.5 81 1.7 W 11 15 6 8 - - 0.0
30/09:31pm 14.7 13.0 11.3 80 1.8 W 11 15 6 8 - - 0.0
30/09:01pm 14.8 13.1 11.2 79 1.9 W 11 15 6 8 - - 0.0
30/09:00pm 14.8 13.1 11.2 79 1.9 W 11 - 6 - - - 0.0
30/08:31pm 14.8 12.8 11.4 80 1.8 W 13 17 7 9 - - 0.0
30/08:01pm 14.9 12.9 11.6 80 1.8 W 13 17 7 9 - - 0.0
30/07:31pm 14.9 13.3 11.7 81 1.7 W 11 15 6 8 - - 0.0
30/07:01pm 15.1 13.1 11.6 79 1.9 W 13 17 7 9 - - 0.0
30/06:31pm 15.3 13.7 11.4 77 2.1 WSW 11 17 6 9 - - 0.0
30/06:01pm 15.8 13.7 11.3 74 2.4 WSW 13 19 7 10 - - 0.0
30/06:00pm 15.8 13.7 11.3 74 2.4 WSW 13 - 7 - - - -
30/05:31pm 16.0 14.4 11.6 75 2.4 WSW 11 15 6 8 - - 0.0
30/05:01pm 16.2 14.2 11.6 74 2.5 SW 13 20 7 11 - - 0.0
30/04:31pm 16.4 14.4 11.6 73 2.6 SW 13 22 7 12 - - 0.0
30/04:01pm 16.7 14.3 11.5 71 2.8 SW 15 22 8 12 - - 0.0
30/03:31pm 17.1 14.3 11.2 68 3.2 SW 17 28 9 15 - - 0.0
30/03:01pm 17.1 14.4 11.6 70 3.0 SW 17 24 9 13 - - 0.0
30/03:00pm 16.9 14.5 11.4 70 3.0 WSW 15 - 8 - - - 0.0
30/02:31pm 16.4 13.0 11.2 71 2.8 SW 20 30 11 16 - - 0.0
30/02:01pm 17.3 14.1 11.2 67 3.3 WSW 19 30 10 16 - - 0.0
30/01:31pm 16.9 13.7 11.2 69 3.1 SW 19 26 10 14 - - 0.0
30/01:01pm 16.8 14.3 11.0 68 3.1 WSW 15 24 8 13 - - 0.0
30/12:31pm 16.4 13.4 10.8 69 3.0 WSW 17 22 9 12 - - 0.0
30/12:01pm 15.7 13.1 10.8 72 2.6 WSW 15 26 8 14 - - 0.0
30/12:00pm 15.5 13.3 10.8 73 2.5 WSW 13 - 7 - - - -
30/11:31am 15.3 11.9 10.6 73 2.5 W 19 30 10 16 - - 0.0
30/11:01am 15.2 12.5 10.5 73 2.5 WSW 15 22 8 12 - - 0.0
30/10:31am 14.9 11.3 9.9 72 2.6 W 19 30 10 16 - - 0.0
30/10:01am 14.9 11.6 9.7 71 2.7 W 17 26 9 14 - - 0.0
30/09:31am 14.1 11.1 9.4 73 2.4 WSW 15 26 8 14 - - 0.0
30/09:01am 14.0 11.3 8.9 71 2.6 WSW 13 19 7 10 - - 0.0
30/09:00am 14.0 11.3 8.9 71 2.6 WSW 13 - 7 - - - 0.4
30/08:31am 13.6 10.4 8.6 72 2.5 WSW 15 26 8 14 - - 0.4
30/08:01am 13.3 10.1 8.3 72 2.5 WSW 15 22 8 12 - - 0.4
30/07:31am 13.1 10.2 8.0 71 2.5 W 13 20 7 11 - - 0.4
30/07:01am 13.0 10.0 7.9 71 2.5 WSW 13 19 7 10 - - 0.4
30/06:31am 13.0 10.4 7.7 70 2.6 W 11 19 6 10 - - 0.4
30/06:01am 12.9 9.8 7.4 69 2.7 W 13 20 7 11 - - 0.4
30/06:00am 12.9 9.8 7.4 69 2.7 W 13 - 7 - - - -
30/05:31am 13.0 9.8 7.0 67 2.9 W 13 19 7 10 - - 0.4
30/05:01am 13.0 9.8 7.0 67 2.9 W 13 19 7 10 - - 0.4
30/04:31am 13.0 9.8 7.0 67 2.9 W 13 19 7 10 - - 0.4
30/04:01am 13.0 9.7 6.5 64 3.1 W 13 20 7 11 - - 0.4
30/03:31am 12.9 9.6 6.4 64 3.1 W 13 19 7 10 - - 0.4
30/03:01am 12.9 9.7 6.9 67 2.9 W 13 17 7 9 - - 0.4
30/03:00am 13.0 9.8 6.8 66 3.0 W 13 - 7 - - - 0.4
30/02:31am 13.1 9.8 6.6 64 3.1 W 13 19 7 10 - - 0.4
30/02:01am 13.0 9.8 6.8 66 3.0 WSW 13 19 7 10 - - 0.4
30/01:31am 13.0 9.8 6.8 66 3.0 WSW 13 22 7 12 - - 0.4
30/01:01am 12.9 9.8 7.1 68 2.8 W 13 19 7 10 - - 0.4
30/12:31am 12.9 9.8 7.1 68 2.8 W 13 19 7 10 - - 0.4
30/12:01am 13.1 9.9 6.9 66 3.0 W 13 24 7 13 - - 0.4
30/12:00am 13.1 10.0 7.1 67 2.9 W 13 - 7 - - - -
 
Date/Time
EST
Temp
°C
App
Temp
°C
Dew
Point
Rel
Hum
%
Delta-T
°C
Wind Press
QNH
hPa
Press
MSL
hPa
Rain
since 9 am
mm
Dir
 
Spd
km/h
Gust
km/h
Spd
kts
Gust
kts
29/11:31pm 13.1 9.9 6.9 66 3.0 WSW 13 19 7 10 - - 0.4
29/11:01pm 13.1 9.5 6.9 66 3.0 W 15 19 8 10 - - 0.4
29/10:31pm 13.5 9.4 6.4 62 3.4 WSW 17 26 9 14 - - 0.4
29/10:01pm 13.0 9.7 6.3 64 3.2 WSW 13 19 7 10 - - 0.4
29/09:31pm 12.5 9.7 6.9 68 2.7 WSW 11 17 6 9 - - 0.4
29/09:01pm 13.0 9.9 7.2 68 2.8 WSW 13 20 7 11 - - 0.2
29/09:00pm 12.9 9.8 7.4 69 2.7 WSW 13 - 7 - - - 0.2
29/08:31pm 13.3 11.0 7.4 67 2.9 WSW 9 11 5 6 - - 0.2
29/08:01pm 13.3 10.3 7.6 68 2.8 WSW 13 20 7 11 - - 0.2
29/07:31pm 13.0 10.9 8.2 72 2.4 WSW 9 13 5 7 - - 0.2
29/07:01pm 13.3 11.6 8.5 72 2.4 WSW 7 15 4 8 - - 0.2
29/06:31pm 13.9 12.2 8.5 70 2.7 WSW 7 9 4 5 - - 0.2
29/06:01pm 14.5 12.7 7.9 64 3.3 SW 7 11 4 6 - - 0.2
29/06:00pm 14.4 12.7 8.2 66 3.1 SW 7 - 4 - - - -
29/05:31pm 14.7 12.2 8.3 65 3.2 SSW 11 17 6 9 - - 0.2

Other Formats:

Comma delimited format used in spreadsheet applications
http://www.bom.gov.au/fwo/IDN60801/IDN60801.94775.axf

JavaScript Object Notation format (JSON) in row-major order
http://www.bom.gov.au/fwo/IDN60801/IDN60801.94775.json